createdAt,value
2018-07-01T00:00:06.277Z,101595.00
2018-07-01T00:03:12.156Z,101593.23
2018-07-01T00:06:18.184Z,101596.89
2018-07-01T00:09:25.186Z,101594.92
2018-07-01T00:12:30.119Z,101602.41
2018-07-01T00:15:36.498Z,101612.06
2018-07-01T00:18:43.720Z,101608.88
2018-07-01T00:21:49.494Z,101605.28
2018-07-01T00:24:54.881Z,101607.48
2018-07-01T00:28:00.038Z,101608.66
2018-07-01T00:31:06.417Z,101609.84
2018-07-01T00:34:12.102Z,101603.80
2018-07-01T00:37:18.242Z,101604.91
2018-07-01T00:40:25.333Z,101606.63
2018-07-01T00:43:30.861Z,101603.28
2018-07-01T00:46:37.609Z,101603.05
2018-07-01T00:49:42.720Z,101598.61
2018-07-01T00:52:49.252Z,101599.06
2018-07-01T00:55:54.961Z,101604.37
2018-07-01T00:59:01.262Z,101597.92
2018-07-01T01:02:06.626Z,101604.52
2018-07-01T01:05:11.518Z,101598.25
2018-07-01T01:08:16.970Z,101600.14
2018-07-01T01:11:23.159Z,101594.37
2018-07-01T01:14:29.297Z,101597.78
2018-07-01T01:17:35.893Z,101596.86
2018-07-01T01:20:42.667Z,101601.19
2018-07-01T01:23:47.518Z,101594.16
2018-07-01T01:26:54.056Z,101598.70
2018-07-01T01:30:00.249Z,101598.81
2018-07-01T01:33:06.401Z,101601.91
2018-07-01T01:36:12.069Z,101602.43
2018-07-01T01:39:21.748Z,101605.78
2018-07-01T01:42:32.091Z,101605.61
2018-07-01T01:45:42.321Z,101609.55
2018-07-01T01:48:59.695Z,101608.50
2018-07-01T01:52:09.556Z,101606.17
2018-07-01T01:55:38.964Z,101607.98
2018-07-01T01:58:49.219Z,101609.20
2018-07-01T02:02:01.310Z,101605.55
2018-07-01T02:05:10.174Z,101603.55
2018-07-01T02:08:21.375Z,101607.91
2018-07-01T02:11:28.596Z,101608.50
2018-07-01T02:14:43.974Z,101608.81
2018-07-01T02:17:52.309Z,101618.43
2018-07-01T02:20:58.218Z,101622.36
2018-07-01T02:24:08.139Z,101623.72
2018-07-01T02:27:13.885Z,101627.30
2018-07-01T02:30:19.386Z,101631.82
2018-07-01T02:33:25.177Z,101635.44
2018-07-01T02:36:30.344Z,101635.88
2018-07-01T02:39:37.603Z,101638.11
2018-07-01T02:42:43.627Z,101632.77
2018-07-01T02:45:49.342Z,101642.17
2018-07-01T02:48:55.355Z,101637.99
2018-07-01T02:52:01.483Z,101646.72
2018-07-01T02:55:07.264Z,101653.36
2018-07-01T02:58:12.150Z,101653.87
2018-07-01T03:01:17.425Z,101644.41
2018-07-01T03:04:24.671Z,101648.50
2018-07-01T03:07:31.461Z,101652.75
2018-07-01T03:10:37.467Z,101661.25
2018-07-01T03:13:43.727Z,101658.61
2018-07-01T03:16:49.787Z,101668.97
2018-07-01T03:19:56.015Z,101669.06
2018-07-01T03:23:01.969Z,101664.37
2018-07-01T03:26:09.395Z,101667.06
2018-07-01T03:29:14.339Z,101668.03
2018-07-01T03:32:20.491Z,101667.13
2018-07-01T03:35:26.149Z,101673.70
2018-07-01T03:38:32.390Z,101679.32
2018-07-01T03:41:38.453Z,101675.52
2018-07-01T03:44:44.809Z,101681.95
2018-07-01T03:47:50.394Z,101685.23
2018-07-01T03:50:55.322Z,101689.87
2018-07-01T03:54:00.741Z,101692.21
2018-07-01T03:57:05.991Z,101695.92
2018-07-01T04:00:12.158Z,101704.03
2018-07-01T04:03:18.071Z,101706.66
2018-07-01T04:06:23.294Z,101700.23
2018-07-01T04:09:32.919Z,101697.86
2018-07-01T04:12:38.118Z,101706.03
2018-07-01T04:15:43.953Z,101703.84
2018-07-01T04:18:50.020Z,101701.72
2018-07-01T04:21:54.935Z,101709.56
2018-07-01T04:25:00.531Z,101703.52
2018-07-01T04:28:06.499Z,101697.86
2018-07-01T04:31:12.406Z,101706.86
2018-07-01T04:34:19.350Z,101704.30
2018-07-01T04:37:25.358Z,101710.00
2018-07-01T04:40:31.289Z,101714.38
2018-07-01T04:43:37.279Z,101719.58
2018-07-01T04:46:44.335Z,101717.83
2018-07-01T04:49:50.402Z,101724.63
2018-07-01T04:52:56.036Z,101731.07
2018-07-01T04:56:01.531Z,101731.97
2018-07-01T04:59:07.626Z,101733.30
2018-07-01T05:02:13.855Z,101738.06
2018-07-01T05:05:20.999Z,101745.37
2018-07-01T05:08:26.671Z,101746.05
2018-07-01T05:11:31.834Z,101744.56
2018-07-01T05:14:36.959Z,101750.34
2018-07-01T05:17:42.158Z,101748.23
2018-07-01T05:20:48.420Z,101750.69
2018-07-01T05:23:53.599Z,101747.23
2018-07-01T05:26:59.658Z,101753.83
2018-07-01T05:30:06.924Z,101749.77
2018-07-01T05:33:12.115Z,101751.66
2018-07-01T05:36:18.685Z,101748.48
2018-07-01T05:39:25.773Z,101750.83
2018-07-01T05:42:31.253Z,101752.30
2018-07-01T05:45:36.506Z,101751.98
2018-07-01T05:48:42.583Z,101751.26
2018-07-01T05:51:48.555Z,101756.45
2018-07-01T05:54:55.526Z,101756.59
2018-07-01T05:58:08.181Z,101759.77
2018-07-01T06:01:13.322Z,101757.20
2018-07-01T06:04:19.376Z,101759.84
2018-07-01T06:07:25.071Z,101755.20
2018-07-01T06:10:30.216Z,101759.20
2018-07-01T06:13:35.588Z,101763.09
2018-07-01T06:16:40.800Z,101764.50
2018-07-01T06:19:46.873Z,101766.36
2018-07-01T06:22:53.019Z,101766.83
2018-07-01T06:25:59.866Z,101765.58
2018-07-01T06:29:06.203Z,101763.56
2018-07-01T06:32:11.595Z,101766.98
2018-07-01T06:35:16.750Z,101762.69
2018-07-01T06:38:21.894Z,101762.30
2018-07-01T06:41:27.968Z,101767.48
2018-07-01T06:44:34.098Z,101767.89
2018-07-01T06:47:41.463Z,101772.63
2018-07-01T06:50:47.178Z,101778.23
2018-07-01T06:53:53.114Z,101777.88
2018-07-01T06:56:59.106Z,101780.02
2018-07-01T07:00:05.373Z,101783.90
2018-07-01T07:03:11.049Z,101777.36
2018-07-01T07:06:16.218Z,101771.23
2018-07-01T07:09:22.267Z,101766.43
2018-07-01T07:12:27.724Z,101770.22
2018-07-01T07:15:32.869Z,101774.93
2018-07-01T07:18:38.375Z,101765.80
2018-07-01T07:21:43.524Z,101771.80
2018-07-01T07:24:48.662Z,101764.38
2018-07-01T07:27:53.782Z,101777.22
2018-07-01T07:30:59.280Z,101775.41
2018-07-01T07:34:04.415Z,101771.87
2018-07-01T07:37:09.557Z,101774.80
2018-07-01T07:40:15.706Z,101781.61
2018-07-01T07:43:21.554Z,101775.55
2018-07-01T07:46:26.399Z,101771.63
2018-07-01T07:49:32.050Z,101768.02
2018-07-01T07:52:38.117Z,101768.38
2018-07-01T07:55:44.968Z,101767.02
2018-07-01T07:58:51.014Z,101765.20
2018-07-01T08:01:57.237Z,101770.61
2018-07-01T08:05:03.429Z,101767.95
2018-07-01T08:08:09.310Z,101770.38
2018-07-01T08:11:15.505Z,101770.12
2018-07-01T08:14:21.169Z,101766.58
2018-07-01T08:17:28.041Z,101769.84
2018-07-01T08:20:34.315Z,101777.45
2018-07-01T08:23:40.322Z,101770.80
2018-07-01T08:26:46.895Z,101782.20
2018-07-01T08:29:52.852Z,101779.42
2018-07-01T08:32:59.921Z,101777.45
2018-07-01T08:36:07.201Z,101782.45
2018-07-01T08:39:13.217Z,101786.41
2018-07-01T08:42:27.551Z,101785.84
2018-07-01T08:45:32.672Z,101782.45
2018-07-01T08:48:37.795Z,101780.36
2018-07-01T08:51:43.326Z,101778.03
2018-07-01T08:54:50.506Z,101775.45
2018-07-01T08:57:56.318Z,101776.31
2018-07-01T09:01:03.287Z,101767.14
2018-07-01T09:04:09.246Z,101763.70
2018-07-01T09:07:15.171Z,101770.58
2018-07-01T09:10:21.835Z,101762.14
2018-07-01T09:13:27.847Z,101760.97
2018-07-01T09:16:33.310Z,101759.88
2018-07-01T09:19:39.237Z,101755.22
2018-07-01T09:22:46.201Z,101754.46
2018-07-01T09:25:53.487Z,101752.28
2018-07-01T09:29:00.335Z,101752.96
2018-07-01T09:32:06.277Z,101759.42
2018-07-01T09:35:13.213Z,101759.48
2018-07-01T09:38:19.214Z,101753.99
2018-07-01T09:41:26.403Z,101749.17
2018-07-01T09:44:33.254Z,101757.20
2018-07-01T09:47:40.178Z,101759.84
2018-07-01T09:50:47.249Z,101759.75
2018-07-01T09:53:54.285Z,101756.95
2018-07-01T09:57:00.357Z,101754.14
2018-07-01T10:00:06.745Z,101755.34
2018-07-01T10:03:13.770Z,101752.23
2018-07-01T10:06:19.517Z,101750.77
2018-07-01T10:09:26.613Z,101755.69
2018-07-01T10:12:32.682Z,101751.77
2018-07-01T10:15:37.814Z,101756.62
2018-07-01T10:18:44.249Z,101748.84
2018-07-01T10:21:50.163Z,101740.77
2018-07-01T10:24:57.221Z,101736.17
2018-07-01T10:28:03.202Z,101741.11
2018-07-01T10:31:08.326Z,101738.53
2018-07-01T10:34:14.368Z,101737.22
2018-07-01T10:37:19.960Z,101730.80
2018-07-01T10:40:26.090Z,101735.69
2018-07-01T10:43:31.998Z,101743.16
2018-07-01T10:46:38.058Z,101733.62
2018-07-01T10:49:43.219Z,101738.88
2018-07-01T10:52:49.298Z,101742.07
2018-07-01T10:55:54.403Z,101736.20
2018-07-01T10:59:00.953Z,101728.95
2018-07-01T11:02:06.335Z,101726.42
2018-07-01T11:05:12.828Z,101729.95
2018-07-01T11:08:19.810Z,101729.56
2018-07-01T11:11:26.101Z,101722.31
2018-07-01T11:14:31.630Z,101715.41
2018-07-01T11:17:36.741Z,101711.70
2018-07-01T11:20:42.227Z,101716.90
2018-07-01T11:23:48.511Z,101727.01
2018-07-01T11:26:54.383Z,101715.58
2018-07-01T11:30:00.038Z,101703.18
2018-07-01T11:33:05.826Z,101711.59
2018-07-01T11:36:10.939Z,101705.05
2018-07-01T11:39:16.667Z,101703.64
2018-07-01T11:42:22.740Z,101698.70
2018-07-01T11:45:29.394Z,101698.91
2018-07-01T11:48:36.467Z,101700.72
2018-07-01T11:51:42.428Z,101697.27
2018-07-01T11:54:48.478Z,101689.55
2018-07-01T11:57:54.123Z,101689.06
2018-07-01T12:01:00.137Z,101686.65
2018-07-01T12:04:05.580Z,101686.80
2018-07-01T12:07:11.094Z,101680.80
2018-07-01T12:10:15.947Z,101680.91
2018-07-01T12:13:22.343Z,101688.30
2018-07-01T12:16:27.294Z,101667.09
2018-07-01T12:19:32.419Z,101671.84
2018-07-01T12:22:37.550Z,101667.55
2018-07-01T12:25:43.061Z,101675.22
2018-07-01T12:28:48.984Z,101661.25
2018-07-01T12:31:55.186Z,101668.33
2018-07-01T12:35:01.271Z,101675.92
2018-07-01T12:38:07.599Z,101676.48
2018-07-01T12:41:13.334Z,101660.37
2018-07-01T12:44:19.398Z,101660.09
2018-07-01T12:47:25.454Z,101669.69
2018-07-01T12:50:31.339Z,101673.72
2018-07-01T12:53:37.731Z,101670.48
2018-07-01T12:56:44.494Z,101665.30
2018-07-01T12:59:50.480Z,101668.23
2018-07-01T13:02:57.867Z,101671.39
2018-07-01T13:06:03.858Z,101665.88
2018-07-01T13:09:11.671Z,101670.11
2018-07-01T13:12:17.924Z,101676.52
2018-07-01T13:15:23.203Z,101672.51
2018-07-01T13:18:28.334Z,101658.08
2018-07-01T13:21:33.687Z,101657.83
2018-07-01T13:24:39.353Z,101661.34
2018-07-01T13:27:44.895Z,101670.05
2018-07-01T13:30:50.969Z,101666.52
2018-07-01T13:33:56.842Z,101654.45
2018-07-01T13:37:03.294Z,101655.48
2018-07-01T13:40:08.774Z,101660.67
2018-07-01T13:43:14.238Z,101651.34
2018-07-01T13:46:20.248Z,101645.95
2018-07-01T13:49:26.088Z,101647.47
2018-07-01T13:52:32.775Z,101638.28
2018-07-01T13:55:39.838Z,101646.16
2018-07-01T13:58:46.957Z,101639.80
2018-07-01T14:01:54.065Z,101636.09
2018-07-01T14:04:59.835Z,101640.37
2018-07-01T14:08:05.270Z,101634.89
2018-07-01T14:11:10.395Z,101631.78
2018-07-01T14:14:16.807Z,101636.91
2018-07-01T14:17:23.252Z,101638.34
2018-07-01T14:20:29.015Z,101637.25
2018-07-01T14:23:35.212Z,101628.21
2018-07-01T14:26:41.264Z,101635.86
2018-07-01T14:29:47.475Z,101635.86
2018-07-01T14:32:54.362Z,101623.80
2018-07-01T14:36:01.743Z,101618.12
2018-07-01T14:39:11.664Z,101631.44
2018-07-01T14:42:17.771Z,101631.33
2018-07-01T14:45:22.988Z,101617.48
2018-07-01T14:48:29.642Z,101622.48
2018-07-01T14:51:35.471Z,101628.12
2018-07-01T14:54:41.073Z,101622.73
2018-07-01T14:57:46.246Z,101620.94
2018-07-01T15:00:52.293Z,101615.63
2018-07-01T15:03:58.349Z,101611.27
2018-07-01T15:07:04.376Z,101621.51
2018-07-01T15:10:11.478Z,101612.17
2018-07-01T15:13:18.685Z,101612.23
2018-07-01T15:16:24.568Z,101610.03
2018-07-01T15:19:30.758Z,101597.39
2018-07-01T15:22:37.596Z,101607.41
2018-07-01T15:25:43.567Z,101594.98
2018-07-01T15:28:48.745Z,101604.03
2018-07-01T15:31:55.840Z,101595.38
2018-07-01T15:35:02.229Z,101588.13
2018-07-01T15:38:08.863Z,101586.88
2018-07-01T15:41:15.014Z,101600.37
2018-07-01T15:44:22.056Z,101589.23
2018-07-01T15:47:27.737Z,101587.77
2018-07-01T15:50:33.855Z,101577.80
2018-07-01T15:53:39.641Z,101582.23
2018-07-01T15:56:45.179Z,101574.20
2018-07-01T15:59:51.135Z,101572.21
2018-07-01T16:02:57.275Z,101573.19
2018-07-01T16:06:03.715Z,101570.22
2018-07-01T16:09:11.349Z,101568.15
2018-07-01T16:12:16.539Z,101562.85
2018-07-01T16:15:23.454Z,101569.45
2018-07-01T16:18:29.896Z,101558.37
2018-07-01T16:21:35.615Z,101555.95
2018-07-01T16:24:47.941Z,101551.34
2018-07-01T16:27:58.087Z,101559.41
2018-07-01T16:31:03.463Z,101549.75
2018-07-01T16:34:10.509Z,101551.92
2018-07-01T16:37:17.516Z,101556.60
2018-07-01T16:40:23.792Z,101549.22
2018-07-01T16:43:29.290Z,101550.53
2018-07-01T16:46:34.806Z,101546.34
2018-07-01T16:49:40.786Z,101550.09
2018-07-01T16:52:47.791Z,101545.41
2018-07-01T16:55:53.479Z,101544.35
2018-07-01T16:59:00.895Z,101539.58
2018-07-01T17:02:07.077Z,101546.21
2018-07-01T17:05:13.201Z,101541.92
2018-07-01T17:08:18.349Z,101545.55
2018-07-01T17:11:24.059Z,101547.66
2018-07-01T17:14:31.174Z,101551.59
2018-07-01T17:17:36.929Z,101547.97
2018-07-01T17:20:42.118Z,101542.38
2018-07-01T17:23:49.163Z,101549.99
2018-07-01T17:26:55.251Z,101547.04
2018-07-01T17:30:02.380Z,101544.23
2018-07-01T17:33:13.244Z,101551.28
2018-07-01T17:36:19.150Z,101548.17
2018-07-01T17:39:25.247Z,101539.07
2018-07-01T17:42:31.207Z,101542.19
2018-07-01T17:45:37.435Z,101546.63
2018-07-01T17:48:44.120Z,101541.70
2018-07-01T17:51:50.271Z,101538.41
2018-07-01T17:54:55.577Z,101533.35
2018-07-01T17:58:01.440Z,101535.53
2018-07-01T18:01:07.598Z,101540.45
2018-07-01T18:04:13.085Z,101537.27
2018-07-01T18:07:18.305Z,101536.43
2018-07-01T18:10:23.468Z,101534.42
2018-07-01T18:13:28.621Z,101549.13
2018-07-01T18:16:33.739Z,101538.48
2018-07-01T18:19:40.842Z,101539.08
2018-07-01T18:23:18.242Z,101539.92
2018-07-01T18:25:53.100Z,101545.48
2018-07-01T18:29:08.184Z,101532.81
2018-07-01T18:32:07.407Z,101532.80
2018-07-01T18:35:13.131Z,101535.04
2018-07-01T18:38:20.384Z,101538.37
2018-07-01T18:41:25.614Z,101534.94
2018-07-01T18:44:30.999Z,101541.09
2018-07-01T18:47:36.879Z,101538.91
2018-07-01T18:50:42.029Z,101530.73
2018-07-01T18:53:47.577Z,101532.95
2018-07-01T18:56:54.578Z,101534.98
2018-07-01T19:00:02.306Z,101532.46
2018-07-01T19:03:09.709Z,101531.61
2018-07-01T19:06:15.823Z,101532.91
2018-07-01T19:09:21.745Z,101529.80
2018-07-01T19:12:28.026Z,101535.95
2018-07-01T19:15:33.266Z,101534.49
2018-07-01T19:18:40.373Z,101545.35
2018-07-01T19:21:46.750Z,101545.45
2018-07-01T19:24:52.879Z,101548.50
2018-07-01T19:27:58.790Z,101554.38
2018-07-01T19:31:09.614Z,101551.02
2018-07-01T19:34:16.295Z,101556.41
2018-07-01T19:37:22.988Z,101556.38
2018-07-01T19:40:30.107Z,101557.28
2018-07-01T19:43:36.164Z,101563.48
2018-07-01T19:46:41.831Z,101561.22
2018-07-01T19:49:46.946Z,101564.63
2018-07-01T19:52:52.690Z,101562.08
2018-07-01T19:55:58.666Z,101567.34
2018-07-01T19:59:03.822Z,101570.02
2018-07-01T20:02:09.950Z,101568.87
2018-07-01T20:05:15.866Z,101576.37
2018-07-01T20:08:21.227Z,101572.01
2018-07-01T20:11:26.361Z,101574.90
2018-07-01T20:14:33.229Z,101578.36
2018-07-01T20:17:38.755Z,101575.91
2018-07-01T20:20:45.591Z,101575.32
2018-07-01T20:23:51.339Z,101576.75
2018-07-01T20:26:56.828Z,101579.63
2018-07-01T20:30:03.183Z,101576.42
2018-07-01T20:33:10.003Z,101574.31
2018-07-01T20:36:15.247Z,101575.16
2018-07-01T20:39:20.538Z,101576.68
2018-07-01T20:42:26.232Z,101576.03
2018-07-01T20:45:32.754Z,101581.16
2018-07-01T20:48:39.967Z,101574.22
2018-07-01T20:51:45.142Z,101580.38
2018-07-01T20:54:52.451Z,101579.55
2018-07-01T20:57:58.344Z,101580.69
2018-07-01T21:01:04.795Z,101579.48
2018-07-01T21:04:12.443Z,101577.64
2018-07-01T21:07:20.350Z,101576.24
2018-07-01T21:10:28.244Z,101573.84
2018-07-01T21:13:39.433Z,101575.98
2018-07-01T21:16:47.179Z,101576.34
2018-07-01T21:19:53.217Z,101578.19
2018-07-01T21:23:00.102Z,101582.80
2018-07-01T21:26:06.148Z,101576.75
2018-07-01T21:29:12.157Z,101582.23
2018-07-01T21:32:17.319Z,101582.30
2018-07-01T21:35:22.462Z,101590.27
2018-07-01T21:38:31.158Z,101585.98
2018-07-01T21:41:40.844Z,101578.91
2018-07-01T21:44:51.783Z,101580.48
2018-07-01T21:48:00.167Z,101581.10
2018-07-01T21:51:05.914Z,101582.48
2018-07-01T21:54:12.208Z,101587.64
2018-07-01T21:57:18.503Z,101584.12
2018-07-01T22:00:29.983Z,101580.38
2018-07-01T22:03:35.746Z,101584.12
2018-07-01T22:06:47.393Z,101585.23
2018-07-01T22:09:53.359Z,101587.86
2018-07-01T22:12:58.741Z,101590.86
2018-07-01T22:16:07.769Z,101584.16
2018-07-01T22:19:14.094Z,101581.92
2018-07-01T22:22:21.214Z,101581.96
2018-07-01T22:25:28.345Z,101577.94
2018-07-01T22:28:34.549Z,101582.08
2018-07-01T22:31:41.341Z,101581.64
2018-07-01T22:34:46.682Z,101583.11
2018-07-01T22:37:53.929Z,101576.58
2018-07-01T22:40:59.637Z,101582.84
2018-07-01T22:44:06.521Z,101578.44
2018-07-01T22:47:13.517Z,101575.87
2018-07-01T22:50:19.581Z,101573.63
2018-07-01T22:53:25.648Z,101572.17
2018-07-01T22:56:32.286Z,101577.23
2018-07-01T22:59:37.627Z,101579.82
2018-07-01T23:02:55.685Z,101577.11
2018-07-01T23:06:01.802Z,101583.33
2018-07-01T23:09:08.654Z,101580.74
2018-07-01T23:12:15.942Z,101589.28
2018-07-01T23:15:22.850Z,101584.75
2018-07-01T23:18:28.418Z,101591.53
2018-07-01T23:21:34.642Z,101597.52
2018-07-01T23:24:39.942Z,101592.14
2018-07-01T23:27:46.826Z,101584.09
2018-07-01T23:30:52.871Z,101581.87
2018-07-01T23:33:59.522Z,101581.62
2018-07-01T23:37:05.190Z,101585.80
2018-07-01T23:40:12.001Z,101584.14
2018-07-01T23:43:17.877Z,101579.55
2018-07-01T23:46:23.245Z,101581.23
2018-07-01T23:49:28.556Z,101573.17
2018-07-01T23:52:34.792Z,101568.58
2018-07-01T23:55:40.961Z,101570.21
2018-07-01T23:58:47.521Z,101564.07
